createdAt,value
2023-02-22T00:03:23.984Z,15.70
2023-02-22T00:07:20.401Z,15.50
2023-02-22T00:15:21.278Z,15.90
2023-02-22T00:19:18.421Z,17.10
2023-02-22T00:23:21.023Z,17.40
2023-02-22T00:31:19.722Z,17.80
2023-02-22T00:35:21.856Z,17.40
2023-02-22T00:39:18.548Z,17.70
2023-02-22T00:43:18.509Z,17.70
2023-02-22T00:47:18.737Z,16.50
2023-02-22T00:51:18.736Z,18.10
2023-02-22T00:55:21.804Z,18.20
2023-02-22T00:59:18.734Z,18.70
2023-02-22T01:03:20.291Z,18.40
2023-02-22T01:11:18.814Z,19.00
2023-02-22T01:15:20.882Z,19.10
2023-02-22T01:19:18.841Z,18.70
2023-02-22T01:27:18.601Z,19.40
2023-02-22T01:31:18.941Z,20.00
2023-02-22T01:35:21.268Z,17.90
2023-02-22T01:39:18.846Z,19.40
2023-02-22T01:43:21.281Z,19.40
2023-02-22T01:51:21.430Z,20.60
2023-02-22T01:55:18.764Z,21.00
2023-02-22T01:59:21.674Z,21.40
2023-02-22T02:03:26.395Z,20.90
2023-02-22T02:07:21.641Z,21.20
2023-02-22T02:11:21.214Z,21.10
2023-02-22T02:15:22.565Z,21.00
2023-02-22T02:19:26.002Z,20.80
2023-02-22T02:23:40.027Z,21.70
2023-02-22T02:35:25.881Z,22.60
2023-02-22T02:39:26.543Z,22.60
2023-02-22T02:55:19.467Z,22.70
2023-02-22T02:59:25.227Z,23.90
2023-02-22T03:03:33.643Z,22.80
2023-02-22T03:11:22.761Z,23.60
2023-02-22T03:15:29.019Z,23.50
2023-02-22T03:19:26.556Z,23.60
2023-02-22T03:27:24.746Z,24.40
2023-02-22T03:31:25.034Z,23.60
2023-02-22T03:35:22.904Z,23.70
2023-02-22T03:39:19.847Z,23.80
2023-02-22T03:51:20.491Z,23.20
2023-02-22T03:55:18.964Z,23.40
2023-02-22T03:59:25.333Z,25.10
2023-02-22T04:03:19.483Z,25.20
2023-02-22T04:07:19.122Z,25.60
2023-02-22T04:11:19.060Z,25.20
2023-02-22T04:15:21.202Z,25.80
2023-02-22T04:19:19.207Z,26.10
2023-02-22T04:27:19.269Z,25.70
2023-02-22T04:31:19.583Z,25.60
2023-02-22T04:35:19.465Z,25.60
2023-02-22T04:39:19.256Z,27.10
2023-02-22T04:55:19.412Z,27.00
2023-02-22T04:59:19.101Z,27.10
2023-02-22T05:03:19.283Z,26.30
2023-02-22T05:07:19.420Z,26.70
2023-02-22T05:11:19.387Z,26.30
2023-02-22T05:19:19.286Z,26.90
2023-02-22T05:23:19.200Z,28.00
2023-02-22T05:27:19.572Z,28.30
2023-02-22T05:31:19.657Z,27.10
2023-02-22T05:35:20.751Z,27.70
2023-02-22T05:39:19.228Z,29.10
2023-02-22T05:43:19.514Z,28.50
2023-02-22T05:51:19.592Z,29.30
2023-02-22T05:55:21.756Z,28.90
2023-02-22T05:59:19.837Z,28.20
2023-02-22T06:03:19.352Z,28.10
2023-02-22T06:07:19.341Z,27.90
2023-02-22T06:11:19.838Z,27.70
2023-02-22T06:15:21.144Z,28.70
2023-02-22T06:19:19.406Z,29.00
2023-02-22T06:23:19.359Z,29.40
2023-02-22T06:27:19.439Z,27.60
2023-02-22T06:39:19.518Z,27.90
2023-02-22T06:43:19.521Z,27.40
2023-02-22T06:47:19.497Z,27.20
2023-02-22T07:03:20.253Z,27.40
2023-02-22T07:19:19.824Z,29.90
2023-02-22T07:27:19.485Z,28.30
2023-02-22T07:31:19.862Z,28.60
2023-02-22T07:35:22.101Z,28.90
2023-02-22T07:39:19.695Z,26.10
2023-02-22T07:47:19.691Z,27.50
2023-02-22T07:51:19.791Z,26.00
2023-02-22T07:55:21.787Z,25.80
2023-02-22T07:59:20.816Z,26.90
2023-02-22T08:03:22.789Z,25.60
2023-02-22T08:07:19.613Z,26.00
2023-02-22T08:11:19.980Z,25.80
2023-02-22T08:15:22.617Z,26.20
2023-02-22T08:19:19.688Z,25.70
2023-02-22T08:23:21.675Z,25.70
2023-02-22T08:27:24.222Z,26.70
2023-02-22T08:39:20.310Z,25.60
2023-02-22T08:43:20.813Z,23.00
2023-02-22T08:47:19.873Z,24.00
2023-02-22T08:51:20.790Z,23.70
2023-02-22T08:55:20.791Z,22.60
2023-02-22T08:59:19.774Z,22.90
2023-02-22T09:03:19.973Z,22.90
2023-02-22T09:07:20.030Z,20.90
2023-02-22T09:11:19.907Z,19.30
2023-02-22T09:15:20.956Z,20.00
2023-02-22T09:19:20.077Z,19.80
2023-02-22T09:23:21.557Z,19.10
2023-02-22T09:27:19.819Z,19.50
2023-02-22T09:39:20.749Z,17.90
2023-02-22T09:43:30.900Z,15.80
2023-02-22T09:47:31.330Z,16.80
2023-02-22T09:51:22.141Z,16.60
2023-02-22T09:55:29.917Z,16.90
2023-02-22T09:59:25.962Z,15.30
2023-02-22T10:03:24.718Z,14.30
2023-02-22T10:11:32.169Z,16.20
2023-02-22T10:15:36.230Z,16.10
2023-02-22T10:19:27.211Z,16.10
2023-02-22T10:23:30.179Z,17.70
2023-02-22T10:35:23.061Z,16.60
2023-02-22T10:39:26.209Z,16.50
2023-02-22T10:43:20.718Z,16.20
2023-02-22T10:47:21.987Z,15.60
2023-02-22T10:51:20.344Z,15.40
2023-02-22T10:55:20.809Z,15.50
2023-02-22T10:59:31.779Z,15.00
2023-02-22T11:03:22.773Z,13.80
2023-02-22T11:07:24.107Z,12.80
2023-02-22T11:11:23.697Z,12.80
2023-02-22T11:19:23.430Z,12.70
2023-02-22T11:23:22.505Z,12.30
2023-02-22T11:27:25.136Z,11.20
2023-02-22T11:31:23.493Z,12.10
2023-02-22T11:35:34.413Z,11.10
2023-02-22T11:39:23.450Z,11.00
2023-02-22T11:47:22.715Z,10.90
2023-02-22T11:55:41.144Z,10.50
2023-02-22T11:59:33.406Z,9.80
2023-02-22T12:03:35.969Z,10.80
2023-02-22T12:07:32.354Z,9.50
2023-02-22T12:11:25.087Z,9.30
2023-02-22T12:19:29.148Z,8.70
2023-02-22T12:23:29.163Z,8.60
2023-02-22T12:27:26.390Z,8.50
2023-02-22T12:31:24.708Z,9.00
2023-02-22T12:35:23.485Z,8.40
2023-02-22T12:39:29.650Z,9.90
2023-02-22T12:43:28.108Z,10.30
2023-02-22T12:47:27.975Z,9.40
2023-02-22T12:51:27.309Z,9.90
2023-02-22T12:55:24.219Z,23.70
2023-02-22T12:59:25.990Z,9.40
2023-02-22T13:03:28.268Z,9.50
2023-02-22T13:11:28.182Z,9.10
2023-02-22T13:19:35.652Z,8.30
2023-02-22T13:23:29.748Z,9.20
2023-02-22T13:27:25.345Z,8.30
2023-02-22T13:31:40.704Z,8.50
2023-02-22T13:35:34.532Z,8.50
2023-02-22T13:39:33.133Z,8.80
2023-02-22T13:43:31.548Z,8.70
2023-02-22T13:47:40.285Z,8.90
2023-02-22T13:51:35.827Z,9.10
2023-02-22T13:55:26.431Z,9.30
2023-02-22T13:59:25.713Z,9.60
2023-02-22T14:03:35.101Z,9.90
2023-02-22T14:07:40.291Z,9.30
2023-02-22T14:11:42.105Z,8.70
2023-02-22T14:15:29.723Z,9.00
2023-02-22T14:19:22.673Z,8.70
2023-02-22T14:23:34.354Z,8.30
2023-02-22T14:27:20.717Z,8.00
2023-02-22T14:31:35.609Z,8.20
2023-02-22T14:35:28.737Z,8.40
2023-02-22T14:39:31.028Z,8.20
2023-02-22T14:43:24.379Z,7.50
2023-02-22T14:47:28.393Z,7.40
2023-02-22T14:51:28.430Z,6.50
2023-02-22T14:55:24.717Z,5.80
2023-02-22T14:59:24.181Z,5.30
2023-02-22T15:03:29.049Z,4.90
2023-02-22T15:07:26.362Z,4.80
2023-02-22T15:11:22.405Z,4.50
2023-02-22T15:15:22.830Z,4.30
2023-02-22T15:19:25.950Z,3.60
2023-02-22T15:23:23.532Z,4.10
2023-02-22T15:27:21.164Z,4.00
2023-02-22T15:31:25.052Z,3.40
2023-02-22T15:35:27.576Z,3.50
2023-02-22T15:39:25.901Z,3.50
2023-02-22T15:43:23.214Z,3.30
2023-02-22T15:47:24.346Z,3.60
2023-02-22T15:51:21.126Z,3.60
2023-02-22T15:55:25.670Z,3.60
2023-02-22T15:59:28.437Z,3.70
2023-02-22T16:03:22.767Z,3.20
2023-02-22T16:07:20.976Z,3.60
2023-02-22T16:11:28.974Z,3.50
2023-02-22T16:15:20.952Z,2.70
2023-02-22T16:19:31.981Z,2.80
2023-02-22T16:23:22.481Z,2.40
2023-02-22T16:27:23.323Z,2.80
2023-02-22T16:31:24.441Z,2.20
2023-02-22T16:35:27.375Z,2.50
2023-02-22T16:47:22.029Z,2.40
2023-02-22T16:51:24.493Z,2.40
2023-02-22T16:55:21.478Z,2.60
2023-02-22T16:59:21.705Z,2.80
2023-02-22T17:03:21.291Z,2.70
2023-02-22T17:07:23.045Z,2.80
2023-02-22T17:11:21.541Z,2.80
2023-02-22T17:15:23.881Z,2.80
2023-02-22T17:19:23.253Z,2.80
2023-02-22T17:23:22.341Z,2.90
2023-02-22T17:27:21.225Z,3.00
2023-02-22T17:31:25.385Z,3.00
2023-02-22T17:35:22.917Z,2.90
2023-02-22T17:39:21.074Z,3.00
2023-02-22T17:43:24.053Z,3.20
2023-02-22T17:47:21.141Z,3.00
2023-02-22T17:51:24.050Z,3.40
2023-02-22T17:55:21.747Z,3.70
2023-02-22T17:59:21.272Z,3.40
2023-02-22T18:03:24.086Z,3.30
2023-02-22T18:07:21.255Z,3.50
2023-02-22T18:11:25.194Z,3.60
2023-02-22T18:15:22.570Z,3.80
2023-02-22T18:19:23.267Z,3.50
2023-02-22T18:23:22.012Z,3.40
2023-02-22T18:27:22.980Z,3.50
2023-02-22T18:31:22.506Z,4.10
2023-02-22T18:35:21.271Z,3.90
2023-02-22T18:39:24.028Z,4.00
2023-02-22T18:47:21.512Z,4.20
2023-02-22T18:51:22.632Z,4.60
2023-02-22T18:55:22.412Z,4.50
2023-02-22T18:59:21.410Z,4.30
2023-02-22T19:03:21.427Z,4.20
2023-02-22T19:07:25.086Z,4.00
2023-02-22T19:11:23.456Z,4.40
2023-02-22T19:15:22.545Z,4.30
2023-02-22T19:19:21.637Z,4.30
2023-02-22T19:23:21.410Z,4.90
2023-02-22T19:35:25.361Z,5.10
2023-02-22T19:43:21.527Z,5.10
2023-02-22T19:47:21.612Z,5.00
2023-02-22T19:51:24.570Z,5.20
2023-02-22T19:55:21.467Z,4.70
2023-02-22T19:59:22.618Z,5.00
2023-02-22T20:03:24.813Z,5.60
2023-02-22T20:07:21.701Z,5.40
2023-02-22T20:11:22.606Z,5.70
2023-02-22T20:15:23.007Z,6.70
2023-02-22T20:19:22.083Z,6.20
2023-02-22T20:23:21.778Z,5.70
2023-02-22T20:27:23.319Z,5.80
2023-02-22T20:31:22.253Z,5.70
2023-02-22T20:35:21.600Z,5.70
2023-02-22T20:43:22.163Z,5.70
2023-02-22T20:47:21.607Z,5.20
2023-02-22T20:55:21.692Z,5.10
2023-02-22T20:59:21.820Z,6.00
2023-02-22T21:03:21.804Z,6.10
2023-02-22T21:07:21.670Z,5.60
2023-02-22T21:11:23.320Z,5.50
2023-02-22T21:15:25.018Z,5.30
2023-02-22T21:19:24.277Z,6.00
2023-02-22T21:23:21.715Z,5.90
2023-02-22T21:27:21.849Z,5.80
2023-02-22T21:31:24.258Z,5.70
2023-02-22T21:35:23.524Z,5.70
2023-02-22T21:39:27.123Z,5.20
2023-02-22T21:43:24.093Z,5.20
2023-02-22T21:47:22.295Z,5.30
2023-02-22T21:55:22.056Z,5.20
2023-02-22T21:59:22.715Z,5.20
2023-02-22T22:03:23.525Z,4.20
2023-02-22T22:07:22.005Z,4.80
2023-02-22T22:11:24.043Z,4.40
2023-02-22T22:15:22.545Z,4.80
2023-02-22T22:19:21.993Z,5.00
2023-02-22T22:27:22.233Z,4.70
2023-02-22T22:31:24.038Z,5.30
2023-02-22T22:35:22.026Z,5.60
2023-02-22T22:39:21.889Z,5.40
2023-02-22T22:43:21.972Z,5.20
2023-02-22T22:47:21.919Z,5.60
2023-02-22T22:51:22.537Z,6.00
2023-02-22T22:55:23.262Z,5.20
2023-02-22T23:03:22.209Z,5.60
2023-02-22T23:07:22.035Z,5.70
2023-02-22T23:11:22.119Z,6.00
2023-02-22T23:15:23.616Z,5.90
2023-02-22T23:19:22.170Z,5.80
2023-02-22T23:23:22.653Z,5.20
2023-02-22T23:27:22.770Z,6.00
2023-02-22T23:31:22.980Z,6.20
2023-02-22T23:35:22.145Z,5.90
2023-02-22T23:39:23.296Z,5.70
2023-02-22T23:43:24.490Z,6.40
2023-02-22T23:47:22.096Z,6.10
2023-02-22T23:51:24.258Z,6.00
2023-02-22T23:55:23.493Z,6.00
2023-02-22T23:59:23.719Z,5.90
